Time;durP1;ratioP1;P1;durP2;ratioP2;P2;SDS_P1;SDS_P2;PMS_P1;PMS_P2;Temp;Humidity;BMP_temperature;BMP_pressure;BME280_temperature;BME280_humidity;BME280_pressure;Samples;Min_cycle;Max_cycle;Signal;HPM_P1;HPM_P2
2022/10/20 00:00:07;;;;;;;10.80;6.60;;;;;;;13.23;66.37;101810.75;4888590;29;20024;-72
2022/10/20 00:02:32;;;;;;;11.10;6.30;;;;;;;13.36;65.72;101803.09;4888495;29;20040;-73
2022/10/20 00:04:57;;;;;;;11.27;6.40;;;;;;;13.38;65.93;101796.16;4891328;29;20392;-73
2022/10/20 00:07:23;;;;;;;12.35;6.30;;;;;;;13.16;66.31;101809.75;4886199;29;20276;-72
2022/10/20 00:09:48;;;;;;;14.57;7.20;;;;;;;13.35;65.88;101801.34;4892199;29;20047;-73
2022/10/20 00:12:13;;;;;;;13.40;6.63;;;;;;;13.22;66.03;101796.75;4890540;29;20024;-73
2022/10/20 00:14:38;;;;;;;12.15;6.70;;;;;;;13.29;66.19;101785.53;4889721;29;20043;-73
2022/10/20 00:17:05;;;;;;;11.32;6.55;;;;;;;13.31;66.15;101790.78;4888245;29;20029;-72
2022/10/20 00:19:31;;;;;;;13.68;6.45;;;;;;;13.06;66.86;101788.56;4885919;29;20044;-72
2022/10/20 00:21:57;;;;;;;14.70;7.28;;;;;;;12.96;67.35;101791.03;4904921;29;20039;-73
2022/10/20 00:24:23;;;;;;;12.50;6.63;;;;;;;13.14;66.73;101790.50;4890951;29;20500;-73
2022/10/20 00:26:48;;;;;;;11.95;6.85;;;;;;;13.18;66.79;101792.31;4881719;29;20079;-72
2022/10/20 00:29:13;;;;;;;13.82;7.00;;;;;;;13.05;67.02;101787.69;4890040;29;20036;-73
2022/10/20 00:31:39;;;;;;;11.25;7.35;;;;;;;13.05;67.11;101773.72;4890767;29;20044;-73
2022/10/20 00:34:04;;;;;;;11.20;6.70;;;;;;;13.09;66.99;101765.94;4889809;29;20034;-73
2022/10/20 00:36:30;;;;;;;10.45;7.28;;;;;;;13.20;66.84;101766.16;4891043;29;20036;-72
2022/10/20 00:38:57;;;;;;;10.07;6.80;;;;;;;13.24;66.57;101766.22;4884818;29;20054;-73
2022/10/20 00:41:23;;;;;;;11.60;6.88;;;;;;;13.22;66.30;101765.34;4896499;29;20029;-72
2022/10/20 00:43:54;;;;;;;11.75;6.95;;;;;;;13.19;66.78;101754.78;4889295;29;20071;-73
2022/10/20 00:46:23;;;;;;;11.88;7.20;;;;;;;13.12;66.83;101752.94;4886802;29;20036;-73
2022/10/20 00:48:55;;;;;;;12.07;7.15;;;;;;;13.03;67.42;101755.38;4906577;29;20043;-72
2022/10/20 00:51:25;;;;;;;12.38;7.55;;;;;;;13.17;66.67;101753.03;4877691;29;20052;-74
2022/10/20 00:53:54;;;;;;;12.93;7.50;;;;;;;12.91;67.74;101765.63;4888444;29;20039;-73
2022/10/20 00:56:21;;;;;;;13.30;7.13;;;;;;;12.68;68.95;101762.59;4886848;29;20095;-74
2022/10/20 00:58:48;;;;;;;11.57;7.30;;;;;;;13.05;67.21;101758.91;4890927;29;20555;-73
2022/10/20 01:01:14;;;;;;;10.75;7.40;;;;;;;13.24;66.47;101766.22;4886630;29;20036;-73
2022/10/20 01:03:46;;;;;;;13.10;7.72;;;;;;;12.88;68.10;101762.94;4891183;29;20032;-73
2022/10/20 01:06:14;;;;;;;12.02;7.32;;;;;;;13.03;67.45;101747.50;4902890;29;20139;-73
2022/10/20 01:08:40;;;;;;;13.38;7.53;;;;;;;12.92;67.87;101744.72;4889085;29;20131;-73
2022/10/20 01:11:16;;;;;;;14.10;7.90;;;;;;;13.20;67.02;101751.34;4905601;29;20115;-74
2022/10/20 01:14:01;;;;;;;11.95;7.20;;;;;;;13.00;67.93;101744.84;4889465;29;21020;-72
2022/10/20 01:16:42;;;;;;;13.50;7.50;;;;;;;12.84;68.43;101735.84;4892231;29;20040;-73
2022/10/20 01:19:14;;;;;;;12.00;7.35;;;;;;;13.07;67.44;101712.66;4890227;29;20058;-73
2022/10/20 01:21:56;;;;;;;11.63;7.57;;;;;;;13.04;67.72;101709.13;4893553;29;20028;-73
2022/10/20 01:24:30;;;;;;;14.30;7.93;;;;;;;13.17;67.33;101703.28;4893200;29;20543;-72
2022/10/20 01:27:27;;;;;;;11.57;7.65;;;;;;;12.90;68.37;101701.03;4893075;29;20048;-74
2022/10/20 01:29:56;;;;;;;12.70;7.32;;;;;;;13.05;67.90;101701.31;4892835;29;20444;-72
2022/10/20 01:32:34;;;;;;;14.88;7.90;;;;;;;12.90;68.48;101703.66;4886513;29;20242;-73
2022/10/20 01:35:13;;;;;;;12.95;7.97;;;;;;;13.01;67.87;101689.91;4893676;29;20092;-73
2022/10/20 01:37:46;;;;;;;12.23;7.72;;;;;;;13.12;67.58;101692.72;4890125;29;20502;-72
2022/10/20 01:40:21;;;;;;;14.13;8.10;;;;;;;12.87;68.67;101691.38;4894803;29;20032;-72
2022/10/20 01:42:49;;;;;;;11.82;8.05;;;;;;;12.84;69.01;101693.09;4890549;29;20047;-72
2022/10/20 01:45:17;;;;;;;14.52;8.55;;;;;;;12.93;68.31;101686.25;4889473;29;20039;-73
2022/10/20 01:47:44;;;;;;;14.70;8.35;;;;;;;12.78;68.63;101683.41;4895617;29;20036;-74
2022/10/20 01:50:11;;;;;;;13.55;8.48;;;;;;;12.73;68.97;101679.81;4886831;29;20052;-72
2022/10/20 01:52:36;;;;;;;16.58;8.35;;;;;;;13.11;67.67;101667.38;4894743;29;20031;-73
2022/10/20 01:55:10;;;;;;;12.35;7.90;;;;;;;12.60;69.64;101663.03;4890362;29;20051;-74
2022/10/20 01:57:41;;;;;;;13.07;8.23;;;;;;;12.76;69.09;101651.09;4907064;29;20046;-73
2022/10/20 02:00:13;;;;;;;12.60;8.20;;;;;;;12.73;69.39;101642.31;4904102;29;20150;-72
2022/10/20 02:03:00;;;;;;;12.07;8.00;;;;;;;12.58;69.69;101643.81;4889653;29;20044;-73
2022/10/20 02:05:50;;;;;;;16.70;8.48;;;;;;;12.89;68.61;101639.97;4889748;29;20796;-72
2022/10/20 02:08:33;;;;;;;13.38;8.23;;;;;;;13.00;68.21;101634.88;4891285;29;20115;-73
2022/10/20 02:11:01;;;;;;;13.77;8.30;;;;;;;13.01;68.24;101629.69;4894032;29;20036;-73
2022/10/20 02:13:29;;;;;;;15.18;9.13;;;;;;;12.76;69.10;101626.66;4886879;29;20506;-73
2022/10/20 02:15:57;;;;;;;12.82;8.13;;;;;;;12.89;68.80;101623.38;4889395;29;20038;-73
2022/10/20 02:18:42;;;;;;;15.48;8.43;;;;;;;13.00;68.34;101625.31;4891823;29;20444;-73
2022/10/20 02:21:10;;;;;;;13.68;8.50;;;;;;;12.84;68.51;101615.47;4900639;29;20254;-72
2022/10/20 02:23:38;;;;;;;12.70;8.48;;;;;;;12.84;68.78;101611.97;4888454;29;20330;-73
2022/10/20 02:26:11;;;;;;;13.90;8.57;;;;;;;12.50;69.71;101605.31;4889285;29;20453;-74
2022/10/20 02:28:40;;;;;;;15.18;8.60;;;;;;;12.80;68.49;101590.13;4894883;29;20042;-74
2022/10/20 02:31:07;;;;;;;13.68;8.38;;;;;;;12.91;68.08;101585.94;4890991;29;20043;-72
2022/10/20 02:33:33;;;;;;;14.80;8.52;;;;;;;12.77;69.20;101574.34;4905328;29;20048;-73
2022/10/20 02:36:02;;;;;;;12.45;8.13;;;;;;;12.74;69.04;101565.59;4894749;29;20122;-73
2022/10/20 02:38:28;;;;;;;13.95;8.77;;;;;;;12.73;68.88;101571.69;4889180;29;20054;-72
2022/10/20 02:40:53;;;;;;;14.30;8.82;;;;;;;12.85;68.89;101570.13;4889677;29;20408;-73
2022/10/20 02:43:18;;;;;;;16.30;9.55;;;;;;;12.71;68.93;101553.31;4886108;29;20042;-74
2022/10/20 02:45:44;;;;;;;14.98;9.05;;;;;;;12.79;68.66;101558.69;4890478;29;20040;-73
2022/10/20 02:48:09;;;;;;;14.00;9.05;;;;;;;12.69;69.40;101554.16;4893502;29;20024;-72
2022/10/20 02:50:35;;;;;;;15.95;9.23;;;;;;;12.56;70.05;101542.66;4884433;29;20919;-72
2022/10/20 02:53:01;;;;;;;14.38;9.07;;;;;;;12.44;71.13;101547.69;4892297;29;20055;-72
2022/10/20 02:55:26;;;;;;;13.75;9.40;;;;;;;12.60;70.28;101542.72;4882477;29;20334;-72
2022/10/20 02:57:52;;;;;;;16.73;9.20;;;;;;;12.73;69.71;101535.94;4904901;29;20046;-72
2022/10/20 03:00:19;;;;;;;14.43;9.15;;;;;;;12.77;69.25;101537.72;4893042;29;20032;-73
2022/10/20 03:02:44;;;;;;;19.25;9.40;;;;;;;12.70;70.51;101535.88;4882882;29;20094;-73
2022/10/20 03:05:10;;;;;;;19.13;10.07;;;;;;;12.71;70.24;101519.31;4891710;29;20127;-73
2022/10/20 03:07:35;;;;;;;17.40;9.60;;;;;;;12.75;69.59;101515.88;4884561;29;20115;-73
2022/10/20 03:10:00;;;;;;;18.13;9.68;;;;;;;12.87;69.68;101515.16;4892004;29;20059;-73
2022/10/20 03:12:26;;;;;;;20.50;9.57;;;;;;;12.87;69.26;101516.06;4890434;29;21096;-73
2022/10/20 03:14:51;;;;;;;19.35;9.80;;;;;;;12.75;69.95;101515.88;4887749;29;20048;-71
2022/10/20 03:17:16;;;;;;;18.58;10.30;;;;;;;12.71;70.15;101516.69;4885898;29;20036;-73
2022/10/20 03:19:42;;;;;;;16.85;9.90;;;;;;;12.77;70.25;101500.22;4889866;29;20583;-73
2022/10/20 03:22:07;;;;;;;15.48;9.80;;;;;;;12.89;69.57;101497.75;4889761;29;20020;-71
2022/10/20 03:24:32;;;;;;;14.93;9.93;;;;;;;12.53;71.11;101488.53;4892566;29;20237;-74
2022/10/20 03:26:58;;;;;;;17.48;10.32;;;;;;;12.71;70.64;101493.16;4889427;29;20799;-73
2022/10/20 03:29:23;;;;;;;20.35;10.05;;;;;;;12.77;70.43;101493.25;4886854;29;20709;-74
2022/10/20 03:31:48;;;;;;;16.48;9.93;;;;;;;12.96;70.07;101490.03;4883672;29;22086;-74
2022/10/20 03:34:14;;;;;;;16.58;10.32;;;;;;;12.86;70.31;101485.53;4890784;29;20044;-72
2022/10/20 03:36:39;;;;;;;16.73;10.13;;;;;;;12.99;70.00;101481.34;4893596;29;20040;-72
2022/10/20 03:39:05;;;;;;;15.10;9.77;;;;;;;13.04;69.60;101486.63;4887821;29;20044;-73
2022/10/20 03:41:31;;;;;;;18.90;10.32;;;;;;;12.94;70.37;101496.97;4887747;29;20878;-72
2022/10/20 03:43:56;;;;;;;18.95;10.35;;;;;;;12.97;70.61;101481.31;4888672;29;20044;-72
2022/10/20 03:46:21;;;;;;;16.85;10.15;;;;;;;13.20;69.41;101480.75;4889319;29;20029;-72
2022/10/20 03:48:47;;;;;;;17.63;10.48;;;;;;;12.93;70.78;101476.00;4891184;29;20020;-72
2022/10/20 03:51:13;;;;;;;22.48;10.35;;;;;;;13.02;69.73;101463.94;4882633;29;20052;-72
2022/10/20 03:53:39;;;;;;;16.90;10.63;;;;;;;13.17;69.79;101471.16;4890032;29;20583;-73
2022/10/20 03:56:16;;;;;;;20.88;10.60;;;;;;;13.11;70.61;101470.16;4897470;29;20140;-72
2022/10/20 03:58:41;;;;;;;17.77;10.85;;;;;;;13.17;70.12;101467.66;4889586;29;20039;-74
2022/10/20 04:01:12;;;;;;;20.73;10.88;;;;;;;13.40;69.09;101467.06;4888281;29;20032;-72
2022/10/20 04:03:37;;;;;;;20.73;11.10;;;;;;;13.33;69.90;101480.06;4892702;29;20028;-73
2022/10/20 04:06:02;;;;;;;20.00;10.88;;;;;;;13.27;69.54;101486.09;4891734;29;20036;-73
2022/10/20 04:08:28;;;;;;;18.52;10.75;;;;;;;13.24;70.06;101486.03;4890983;29;20048;-73
2022/10/20 04:10:53;;;;;;;17.17;10.95;;;;;;;13.49;69.17;101478.47;4891971;29;20136;-73
2022/10/20 04:13:19;;;;;;;20.98;11.23;;;;;;;13.42;69.64;101472.28;4885729;29;20086;-72
2022/10/20 04:15:44;;;;;;;18.00;11.40;;;;;;;13.48;69.52;101461.03;4893206;29;20036;-72
2022/10/20 04:18:09;;;;;;;18.20;11.07;;;;;;;13.30;69.62;101467.78;4890425;29;20032;-72
2022/10/20 04:20:35;;;;;;;21.00;11.05;;;;;;;13.18;70.82;101478.13;4902312;29;20292;-72
2022/10/20 04:23:00;;;;;;;21.67;11.50;;;;;;;13.36;70.04;101467.84;4890967;29;20037;-74
2022/10/20 04:25:25;;;;;;;18.63;10.80;;;;;;;13.52;69.51;101473.28;4885999;29;20414;-73
2022/10/20 04:27:51;;;;;;;17.95;11.43;;;;;;;13.56;69.34;101461.97;4892743;29;20448;-72
2022/10/20 04:30:16;;;;;;;23.50;12.15;;;;;;;13.36;70.28;101453.88;4889447;29;20471;-74
2022/10/20 04:32:42;;;;;;;19.52;11.25;;;;;;;13.01;71.12;101437.72;4887945;29;20055;-73
2022/10/20 04:35:08;;;;;;;19.60;11.95;;;;;;;13.20;70.76;101431.91;4905017;29;20536;-73
2022/10/20 04:37:33;;;;;;;20.40;11.20;;;;;;;13.42;70.16;101430.38;4888628;29;20467;-73
2022/10/20 04:39:58;;;;;;;17.45;11.70;;;;;;;13.44;70.01;101423.44;4894778;29;20036;-73
2022/10/20 04:42:24;;;;;;;18.92;11.50;;;;;;;13.48;69.63;101417.34;4905198;28;20490;-72
2022/10/20 04:44:49;;;;;;;20.58;11.50;;;;;;;13.53;69.54;101412.19;4888527;29;20456;-72
2022/10/20 04:47:15;;;;;;;20.60;11.82;;;;;;;13.31;70.38;101418.91;4889044;29;20331;-74
2022/10/20 04:49:40;;;;;;;21.42;12.18;;;;;;;13.34;70.69;101426.81;4889103;29;20060;-72
2022/10/20 04:52:06;;;;;;;19.02;11.68;;;;;;;13.17;71.05;101429.25;4891465;29;20510;-73
2022/10/20 04:54:31;;;;;;;19.08;11.55;;;;;;;13.42;70.26;101438.22;4891941;29;20040;-73
2022/10/20 04:56:57;;;;;;;21.23;11.77;;;;;;;13.66;69.26;101448.13;4888064;29;20364;-72
2022/10/20 04:59:23;;;;;;;21.33;11.35;;;;;;;13.60;69.48;101446.28;4885717;29;20043;-73
2022/10/20 05:01:48;;;;;;;20.02;11.90;;;;;;;13.65;69.48;101441.13;4884430;29;20052;-72
2022/10/20 05:04:19;;;;;;;21.83;12.05;;;;;;;13.69;69.25;101432.41;4901095;29;20623;-72
2022/10/20 05:06:45;;;;;;;22.50;11.80;;;;;;;13.55;69.81;101408.69;4891936;29;20674;-73
2022/10/20 05:09:10;;;;;;;18.80;11.43;;;;;;;13.62;69.57;101386.94;4898030;29;20418;-72
2022/10/20 05:11:36;;;;;;;21.50;12.38;;;;;;;13.39;70.85;101380.59;4890158;29;20043;-73
2022/10/20 05:14:02;;;;;;;22.48;12.38;;;;;;;13.20;71.19;101376.91;4886328;29;20336;-72
2022/10/20 05:16:28;;;;;;;19.67;11.55;;;;;;;13.51;70.28;101395.56;4890662;29;20039;-73
2022/10/20 05:18:54;;;;;;;22.05;12.68;;;;;;;13.34;71.05;101395.41;4889889;29;20032;-72
2022/10/20 05:21:22;;;;;;;19.48;11.85;;;;;;;13.45;70.62;101375.41;4885067;29;20047;-72
2022/10/20 05:23:48;;;;;;;22.50;12.38;;;;;;;13.23;71.53;101378.69;4891598;29;20522;-74
2022/10/20 05:26:15;;;;;;;20.95;11.63;;;;;;;13.41;70.97;101373.66;4886579;29;20044;-74
2022/10/20 05:28:46;;;;;;;21.70;12.30;;;;;;;13.59;70.59;101362.47;4905200;29;20378;-72
2022/10/20 05:31:12;;;;;;;20.60;12.05;;;;;;;13.49;70.56;101369.34;4881449;29;20099;-72
2022/10/20 05:33:38;;;;;;;21.05;12.05;;;;;;;13.78;69.60;101365.22;4891588;29;20028;-74
2022/10/20 05:36:11;;;;;;;20.27;11.80;;;;;;;13.82;69.50;101364.41;4903123;29;20040;-72
2022/10/20 05:38:38;;;;;;;25.80;12.25;;;;;;;13.65;70.09;101365.13;4885514;28;20064;-73
2022/10/20 05:41:08;;;;;;;24.02;12.15;;;;;;;13.45;70.88;101351.84;4886079;29;20607;-73
2022/10/20 05:43:34;;;;;;;21.27;12.25;;;;;;;13.19;71.66;101351.59;4881676;29;20048;-72
2022/10/20 05:45:59;;;;;;;20.40;11.73;;;;;;;13.57;70.11;101343.22;4888389;29;20028;-73
2022/10/20 05:48:24;;;;;;;20.30;12.05;;;;;;;13.46;70.58;101327.41;4889014;29;20044;-73
2022/10/20 05:50:50;;;;;;;20.38;11.65;;;;;;;13.64;69.95;101324.94;4884274;29;21528;-73
2022/10/20 05:53:15;;;;;;;21.08;12.18;;;;;;;13.60;69.99;101328.38;4884487;29;20377;-72
2022/10/20 05:55:40;;;;;;;20.08;11.82;;;;;;;13.53;70.56;101336.22;4890189;29;20103;-74
2022/10/20 05:58:06;;;;;;;20.05;11.50;;;;;;;13.66;69.97;101330.22;4894745;29;20032;-72
2022/10/20 06:00:40;;;;;;;19.52;11.63;;;;;;;13.89;69.14;101331.25;4888696;29;20029;-73
2022/10/20 06:03:06;;;;;;;19.27;11.75;;;;;;;13.76;69.87;101332.03;4886573;29;20127;-72
2022/10/20 06:05:31;;;;;;;22.48;11.98;;;;;;;13.59;70.05;101341.50;4896912;29;20036;-72
2022/10/20 06:07:57;;;;;;;20.13;12.02;;;;;;;13.40;70.97;101341.34;4893055;29;20031;-75
2022/10/20 06:10:23;;;;;;;21.75;11.63;;;;;;;13.68;70.08;101329.34;4891969;29;20228;-73
2022/10/20 06:12:48;;;;;;;17.77;11.88;;;;;;;13.75;69.74;101328.53;4894564;29;20060;-72
2022/10/20 06:15:14;;;;;;;19.70;11.73;;;;;;;13.40;71.11;101336.09;4887061;29;20048;-74
2022/10/20 06:17:39;;;;;;;19.60;11.88;;;;;;;13.75;70.13;101330.28;4893489;29;20040;-73
2022/10/20 06:20:05;;;;;;;21.23;12.15;;;;;;;13.53;70.89;101338.81;4892699;29;20065;-74
2022/10/20 06:22:30;;;;;;;20.05;11.57;;;;;;;13.73;70.21;101332.88;4895647;29;20047;-72
2022/10/20 06:24:56;;;;;;;20.58;11.88;;;;;;;13.55;70.77;101322.25;4894886;29;20107;-72
2022/10/20 06:27:21;;;;;;;19.55;11.85;;;;;;;13.74;70.20;101312.78;4892314;29;20818;-73
2022/10/20 06:29:47;;;;;;;21.13;12.32;;;;;;;13.53;70.54;101318.75;4895947;29;20106;-72
2022/10/20 06:32:12;;;;;;;20.85;11.55;;;;;;;13.80;70.01;101323.31;4894170;29;20055;-73
2022/10/20 06:34:37;;;;;;;17.77;11.70;;;;;;;13.60;70.66;101315.28;4898495;29;20593;-72
2022/10/20 06:37:03;;;;;;;21.10;12.50;;;;;;;13.60;70.47;101338.88;4895814;29;20502;-72
2022/10/20 06:39:28;;;;;;;23.15;12.10;;;;;;;13.80;70.27;101352.13;4884181;29;20055;-72
2022/10/20 06:41:54;;;;;;;20.20;11.80;;;;;;;13.89;69.51;101352.22;4895586;29;20087;-74
2022/10/20 06:44:22;;;;;;;19.15;11.80;;;;;;;13.70;70.24;101345.97;4888777;29;20122;-73
2022/10/20 06:46:48;;;;;;;21.05;11.60;;;;;;;13.93;69.37;101334.75;4891748;29;20091;-72
2022/10/20 06:49:13;;;;;;;19.60;12.23;;;;;;;13.75;70.10;101325.91;4883850;29;20059;-72
2022/10/20 06:51:39;;;;;;;22.08;12.10;;;;;;;13.92;69.83;101327.75;4889705;29;20528;-72
2022/10/20 06:54:04;;;;;;;21.25;12.07;;;;;;;13.61;70.87;101327.53;4884924;29;20118;-72
2022/10/20 06:56:32;;;;;;;21.73;11.93;;;;;;;13.62;71.33;101320.56;4889044;29;20159;-72
2022/10/20 06:59:00;;;;;;;21.75;12.32;;;;;;;13.92;69.79;101315.53;4890369;29;20024;-73
2022/10/20 07:01:30;;;;;;;22.55;12.00;;;;;;;14.31;68.85;101314.91;4885497;28;20459;-73
2022/10/20 07:03:58;;;;;;;19.30;11.68;;;;;;;14.18;68.90;101319.22;4890971;29;20459;-73
2022/10/20 07:06:33;;;;;;;21.35;12.50;;;;;;;14.29;68.95;101311.38;4893123;29;20028;-72
2022/10/20 07:08:58;;;;;;;;;;;;;;;14.29;68.99;101302.63;4885659;29;20230;-72
2022/10/20 07:11:28;;;;;;;17.88;11.48;;;;;;;14.37;68.46;101300.94;4883800;29;20769;-72
2022/10/20 07:13:56;;;;;;;19.95;11.77;;;;;;;14.17;69.17;101308.69;4887301;29;20052;-73
2022/10/20 07:16:24;;;;;;;19.88;12.10;;;;;;;13.86;70.36;101306.75;4891378;29;20039;-73
2022/10/20 07:18:49;;;;;;;19.73;12.18;;;;;;;14.28;69.31;101312.25;4892037;29;20675;-73
2022/10/20 07:21:20;;;;;;;19.02;11.73;;;;;;;14.53;68.56;101313.28;4882809;29;20750;-73
2022/10/20 07:23:46;;;;;;;17.60;11.73;;;;;;;14.46;68.73;101303.63;4892422;29;20032;-74
2022/10/20 07:26:15;;;;;;;19.50;12.15;;;;;;;14.68;68.07;101299.34;4886812;29;20103;-74
2022/10/20 07:28:44;;;;;;;19.63;11.90;;;;;;;14.23;69.45;101291.25;4890695;29;20613;-73
2022/10/20 07:31:16;;;;;;;22.00;12.55;;;;;;;14.27;69.58;101305.28;4882725;29;20043;-72
2022/10/20 07:33:42;;;;;;;18.42;12.18;;;;;;;14.52;68.91;101301.91;4891237;29;20075;-72
2022/10/20 07:36:23;;;;;;;23.08;11.48;;;;;;;14.82;67.84;101300.28;4888941;29;20131;-73
2022/10/20 07:38:50;;;;;;;22.20;12.30;;;;;;;14.65;68.06;101288.84;4884561;29;20048;-73
2022/10/20 07:41:16;;;;;;;19.63;11.65;;;;;;;14.42;69.03;101294.88;4883917;29;20503;-73
2022/10/20 07:43:42;;;;;;;19.45;12.55;;;;;;;14.53;68.97;101279.16;4890446;29;20159;-73
2022/10/20 07:46:09;;;;;;;21.90;12.50;;;;;;;14.48;68.67;101287.03;4879881;29;20381;-73
2022/10/20 07:48:35;;;;;;;19.77;12.23;;;;;;;14.59;68.79;101290.56;4889780;29;20036;-72
2022/10/20 07:51:12;;;;;;;18.70;12.02;;;;;;;14.80;67.99;101297.66;4884352;29;20048;-73
2022/10/20 07:53:37;;;;;;;19.42;11.82;;;;;;;14.77;68.09;101295.00;4888269;29;20028;-74
2022/10/20 07:56:03;;;;;;;19.10;12.27;;;;;;;14.72;68.22;101296.75;4887925;29;20040;-72
2022/10/20 07:58:28;;;;;;;20.90;12.70;;;;;;;15.08;67.37;101301.19;4886793;29;20040;-72
2022/10/20 08:00:53;;;;;;;17.67;11.77;;;;;;;15.03;67.40;101297.69;4886342;29;20039;-74
2022/10/20 08:03:19;;;;;;;19.05;12.10;;;;;;;15.11;67.58;101298.59;4861268;29;20544;-74
2022/10/20 08:05:44;;;;;;;20.95;11.90;;;;;;;15.24;66.96;101305.63;4885979;29;20463;-72
2022/10/20 08:08:09;;;;;;;20.55;12.00;;;;;;;14.86;68.25;101302.91;4881779;29;20036;-72
2022/10/20 08:10:35;;;;;;;18.23;11.45;;;;;;;14.76;68.56;101293.25;4886118;29;20036;-73
2022/10/20 08:13:00;;;;;;;17.95;12.02;;;;;;;14.84;68.21;101294.16;4885265;29;20016;-72
2022/10/20 08:15:25;;;;;;;22.23;12.68;;;;;;;14.93;68.39;101295.94;4875258;29;20397;-72
2022/10/20 08:17:51;;;;;;;19.60;11.73;;;;;;;15.00;68.14;101295.06;4889936;29;20028;-73
2022/10/20 08:20:16;;;;;;;19.92;12.55;;;;;;;15.09;68.31;101287.19;4885644;29;20247;-74
2022/10/20 08:22:41;;;;;;;21.52;11.98;;;;;;;15.13;67.94;101290.69;4891441;29;20032;-72
2022/10/20 08:25:12;;;;;;;20.15;11.60;;;;;;;15.38;67.30;101288.09;4881765;29;20036;-74
2022/10/20 08:27:37;;;;;;;21.20;12.93;;;;;;;15.22;67.66;101286.34;4899532;29;20500;-73
2022/10/20 08:30:03;;;;;;;19.58;12.40;;;;;;;15.22;68.00;101280.22;4885794;29;21179;-73
2022/10/20 08:32:28;;;;;;;16.50;11.05;;;;;;;15.46;67.50;101276.72;4887519;29;20102;-73
2022/10/20 08:34:53;;;;;;;19.90;12.07;;;;;;;15.62;67.38;101274.09;4891439;29;20028;-72
2022/10/20 08:37:19;;;;;;;20.05;11.98;;;;;;;15.58;67.37;101277.63;4878671;29;20063;-73
2022/10/20 08:39:44;;;;;;;16.45;11.60;;;;;;;15.62;67.27;101267.97;4882385;29;20556;-73
2022/10/20 08:42:10;;;;;;;19.70;11.90;;;;;;;15.78;66.56;101260.09;4891386;29;20055;-72
2022/10/20 08:44:38;;;;;;;19.02;12.00;;;;;;;15.60;67.62;101254.84;4887095;29;20043;-73
2022/10/20 08:47:14;;;;;;;18.20;12.50;;;;;;;15.77;66.90;101255.69;4890473;29;20389;-74
2022/10/20 08:49:39;;;;;;;19.58;12.43;;;;;;;15.65;67.05;101258.34;4880451;29;20036;-73
2022/10/20 08:52:11;;;;;;;19.20;12.40;;;;;;;15.76;67.10;101245.19;4895361;29;20051;-73
2022/10/20 08:54:37;;;;;;;20.23;12.25;;;;;;;15.24;68.31;101239.94;4874452;29;20381;-74
2022/10/20 08:57:34;;;;;;;18.38;11.63;;;;;;;15.60;67.86;101251.34;4878637;29;20099;-72
2022/10/20 09:00:23;;;;;;;21.85;12.32;;;;;;;15.76;67.55;101247.81;4878362;29;20094;-72
2022/10/20 09:02:49;;;;;;;20.40;11.98;;;;;;;15.85;66.96;101245.19;4884786;29;20169;-73
2022/10/20 09:05:21;;;;;;;18.77;12.35;;;;;;;15.66;68.02;101249.59;4887495;29;20091;-74
2022/10/20 09:07:48;;;;;;;22.48;12.27;;;;;;;15.51;68.09;101239.03;4885392;29;20507;-72
2022/10/20 09:10:36;;;;;;;18.23;12.38;;;;;;;15.52;68.51;101238.22;4888737;29;20021;-73
2022/10/20 09:13:08;;;;;;;20.10;12.32;;;;;;;16.02;67.22;101238.13;4886623;29;20116;-73
2022/10/20 09:15:33;;;;;;;23.42;12.75;;;;;;;15.77;67.93;101218.03;4904848;29;20126;-73
2022/10/20 09:18:03;;;;;;;21.55;12.75;;;;;;;15.61;68.64;101229.44;4908098;29;20423;-73
2022/10/20 09:20:47;;;;;;;19.55;11.57;;;;;;;15.99;67.69;101229.34;4886606;29;20158;-73
2022/10/20 09:23:16;;;;;;;18.80;11.85;;;;;;;15.81;68.48;101219.75;4890316;29;20035;-72
2022/10/20 09:25:43;;;;;;;21.73;12.02;;;;;;;15.65;68.75;101207.53;4886340;29;20126;-72
2022/10/20 09:28:20;;;;;;;19.10;12.18;;;;;;;15.98;67.94;101201.31;4905075;29;20527;-72
2022/10/20 09:30:46;;;;;;;18.75;12.10;;;;;;;16.23;66.97;101201.19;4891393;29;20028;-72
2022/10/20 09:33:37;;;;;;;18.02;12.20;;;;;;;16.18;67.50;101194.19;4887162;29;20067;-73
2022/10/20 09:36:13;;;;;;;23.00;12.35;;;;;;;16.24;67.52;101197.69;4894084;29;20532;-72
2022/10/20 09:38:45;;;;;;;18.02;11.55;;;;;;;16.15;67.37;101197.72;4887662;29;20044;-73
2022/10/20 09:41:18;;;;;;;19.25;12.48;;;;;;;16.34;67.25;101198.53;4892676;29;20047;-72
2022/10/20 09:43:53;;;;;;;17.80;12.15;;;;;;;16.48;66.84;101195.78;4891109;29;20317;-72
2022/10/20 09:46:21;;;;;;;;;;;;;;;16.57;66.60;101207.16;4895708;29;20034;-72
2022/10/20 09:48:48;;;;;;;19.38;11.65;;;;;;;16.25;67.54;101219.59;4905708;29;20232;-73
2022/10/20 09:51:28;;;;;;;17.35;11.77;;;;;;;16.62;67.07;101213.31;4882494;29;20071;-73
2022/10/20 09:53:59;;;;;;;18.63;12.18;;;;;;;16.55;67.14;101222.09;4892536;29;20036;-72
2022/10/20 09:56:27;;;;;;;19.90;12.15;;;;;;;16.63;66.91;101225.59;4890118;29;20159;-72
2022/10/20 09:58:55;;;;;;;18.65;12.05;;;;;;;16.72;66.58;101185.16;4894951;29;20114;-73
2022/10/20 10:01:20;;;;;;;20.25;12.30;;;;;;;16.57;67.29;101175.56;4862971;29;20408;-73
2022/10/20 10:03:48;;;;;;;18.40;11.98;;;;;;;16.59;67.46;101171.19;4882092;29;20036;-71
2022/10/20 10:06:32;;;;;;;21.58;12.45;;;;;;;16.90;66.60;101176.25;4884089;29;20043;-72
2022/10/20 10:08:59;;;;;;;18.63;12.27;;;;;;;16.91;66.69;101176.22;4885972;29;20044;-72
2022/10/20 10:11:33;;;;;;;20.63;12.63;;;;;;;17.06;66.21;101193.69;4878576;29;20716;-72
2022/10/20 10:14:00;;;;;;;21.33;12.70;;;;;;;17.08;66.21;101183.16;4878817;29;20055;-74
2022/10/20 10:16:26;;;;;;;18.90;12.02;;;;;;;17.32;65.44;101178.50;4884247;29;20074;-72
2022/10/20 10:19:16;;;;;;;17.20;11.77;;;;;;;17.07;66.67;101187.53;4894663;29;20040;-73
2022/10/20 10:21:45;;;;;;;20.35;11.82;;;;;;;17.20;66.33;101173.34;4891968;29;20488;-72
2022/10/20 10:24:37;;;;;;;20.42;11.75;;;;;;;17.20;66.93;101157.53;4892229;29;20043;-72
2022/10/20 10:27:02;;;;;;;19.75;12.45;;;;;;;17.13;67.17;101126.91;4885840;29;20456;-71
2022/10/20 10:29:33;;;;;;;20.48;11.77;;;;;;;17.18;67.30;101113.66;4879494;29;21158;-73
2022/10/20 10:32:00;;;;;;;18.83;11.60;;;;;;;17.34;67.21;101102.06;4887975;29;20253;-72
2022/10/20 10:34:42;;;;;;;18.85;12.52;;;;;;;17.48;67.25;101120.38;4893817;29;20032;-71
2022/10/20 10:37:12;;;;;;;22.23;12.50;;;;;;;17.14;69.00;101130.41;4895584;29;20510;-72
2022/10/20 10:39:37;;;;;;;22.90;13.23;;;;;;;17.28;68.52;101120.59;4895191;29;20024;-73
2022/10/20 10:42:28;;;;;;;20.15;12.88;;;;;;;17.26;68.70;101122.38;4913638;29;20408;-73
2022/10/20 10:45:15;;;;;;;21.20;12.80;;;;;;;17.33;68.73;101127.56;4890618;29;20042;-73
2022/10/20 10:47:44;;;;;;;19.00;12.30;;;;;;;17.13;69.55;101111.09;4902368;29;20114;-72
2022/10/20 10:50:24;;;;;;;19.30;12.48;;;;;;;17.18;69.98;101108.41;4891136;29;20511;-72
2022/10/20 10:53:08;;;;;;;19.75;12.13;;;;;;;17.55;68.93;101111.53;4881902;29;20040;-72
2022/10/20 10:55:48;;;;;;;20.10;12.23;;;;;;;17.19;69.81;101092.59;4879476;29;20048;-72
2022/10/20 10:58:52;;;;;;;18.10;12.15;;;;;;;16.99;70.75;101094.53;4903953;29;20028;-73
2022/10/20 11:01:33;;;;;;;17.67;10.98;;;;;;;17.29;70.10;101094.22;4881334;29;20070;-72
2022/10/20 11:04:38;;;;;;;21.13;11.57;;;;;;;17.40;70.21;101105.53;4893452;29;20127;-72
2022/10/20 11:07:41;;;;;;;22.05;11.80;;;;;;;17.72;69.56;101102.56;4892541;29;20040;-72
2022/10/20 11:10:15;;;;;;;18.08;11.30;;;;;;;17.64;70.19;101111.44;4888729;29;20441;-72
2022/10/20 11:13:10;;;;;;;19.90;11.05;;;;;;;18.12;69.24;101116.09;4891863;29;20035;-72
2022/10/20 11:15:44;;;;;;;17.70;11.23;;;;;;;18.15;69.11;101123.09;4890276;29;20064;-73
2022/10/20 11:18:27;;;;;;;16.38;10.75;;;;;;;18.35;68.19;101126.34;4892298;29;20127;-72
2022/10/20 11:21:34;;;;;;;15.98;11.13;;;;;;;18.41;68.36;101120.97;4883016;29;20359;-72